TimeCST,TemperatureF,Dew PointF,Humidity,Sea Level PressureIn,VisibilityMPH,Wind Direction,Wind SpeedMPH,Gust SpeedMPH,PrecipitationIn,Events,Conditions,WindDirDegrees,DateUTC
12:54 AM,33.1,26.1,75,30.11,8.0,NNW,5.8,-,N/A,,Overcast,340,2012-12-25 06:54:00
1:54 AM,30.9,25.0,79,30.12,7.0,North,11.5,-,N/A,,Overcast,360,2012-12-25 07:54:00
2:54 AM,30.9,25.0,79,30.13,7.0,North,5.8,-,N/A,,Overcast,360,2012-12-25 08:54:00
3:54 AM,30.9,25.0,79,30.15,7.0,North,6.9,-,N/A,,Overcast,360,2012-12-25 09:54:00
4:05 AM,30.2,24.8,80,30.14,7.0,North,8.1,-,N/A,,Overcast,10,2012-12-25 10:05:00
4:54 AM,30.0,24.1,79,30.16,6.0,North,5.8,-,N/A,,Haze,350,2012-12-25 10:54:00
5:54 AM,30.0,25.0,82,30.15,7.0,North,10.4,-,N/A,,Overcast,10,2012-12-25 11:54:00
6:54 AM,30.9,25.0,79,30.14,4.0,NNE,9.2,-,N/A,,Overcast,20,2012-12-25 12:54:00
7:54 AM,32.0,26.1,79,30.14,4.0,NE,11.5,-,N/A,,Overcast,40,2012-12-25 13:54:00
8:54 AM,33.1,27.0,78,30.21,5.0,NE,5.8,-,N/A,,Haze,40,2012-12-25 14:54:00
9:54 AM,34.0,28.0,79,30.19,3.0,NNE,10.4,-,N/A,,Haze,20,2012-12-25 15:54:00
10:27 AM,35.6,28.4,75,30.18,6.0,NNE,11.5,-,N/A,,Haze,20,2012-12-25 16:27:00
10:54 AM,36.0,27.0,70,30.18,4.0,NNE,9.2,-,N/A,,Overcast,30,2012-12-25 16:54:00
11:54 AM,37.0,25.0,62,30.16,5.0,NE,10.4,-,N/A,,Haze,40,2012-12-25 17:54:00
12:54 PM,36.0,26.1,67,30.17,10.0,NE,9.2,-,N/A,,Overcast,50,2012-12-25 18:54:00
1:54 PM,37.0,26.1,65,30.09,10.0,NE,12.7,-,N/A,,Overcast,50,2012-12-25 19:54:00
2:54 PM,37.0,26.1,65,30.06,10.0,NE,15.0,-,N/A,,Overcast,50,2012-12-25 20:54:00
3:54 PM,37.0,26.1,65,30.06,9.0,NE,16.1,23.0,N/A,,Overcast,50,2012-12-25 21:54:00
4:54 PM,37.0,27.0,67,30.07,10.0,NE,13.8,-,N/A,,Overcast,40,2012-12-25 22:54:00
5:54 PM,36.0,27.0,70,30.09,10.0,NE,8.1,-,N/A,,Overcast,40,2012-12-25 23:54:00
6:54 PM,37.0,27.0,67,30.03,10.0,NE,17.3,23.0,N/A,,Overcast,40,2012-12-26 00:54:00
7:54 PM,36.0,27.0,70,29.99,10.0,NE,18.4,25.3,N/A,,Overcast,50,2012-12-26 01:54:00
8:54 PM,37.0,27.0,67,29.96,10.0,NE,19.6,26.5,N/A,,Overcast,50,2012-12-26 02:54:00
9:02 PM,37.4,26.6,65,29.95,10.0,NE,19.6,26.5,N/A,,Overcast,50,2012-12-26 03:02:00
9:21 PM,37.4,26.6,65,29.94,10.0,NE,19.6,25.3,N/A,,Overcast,50,2012-12-26 03:21:00
9:54 PM,36.0,27.0,70,29.93,10.0,NE,19.6,-,N/A,,Overcast,50,2012-12-26 03:54:00
10:54 PM,35.1,27.0,72,29.88,10.0,NE,20.7,26.5,0.00,Rain,Light Rain,40,2012-12-26 04:54:00
11:54 PM,34.0,28.0,79,29.81,8.0,NNE,18.4,26.5,0.01,Rain,Light Rain,30,2012-12-26 05:54:00